createdAt,value
2018-06-23T00:00:55.500Z,4.87
2018-06-23T00:03:24.495Z,4.93
2018-06-23T00:05:53.156Z,4.70
2018-06-23T00:08:21.793Z,5.37
2018-06-23T00:10:50.413Z,4.90
2018-06-23T00:13:18.991Z,5.43
2018-06-23T00:15:47.696Z,4.83
2018-06-23T00:18:16.335Z,5.67
2018-06-23T00:20:45.097Z,5.00
2018-06-23T00:23:13.822Z,6.00
2018-06-23T00:25:48.049Z,5.27
2018-06-23T00:28:16.617Z,5.13
2018-06-23T00:30:45.320Z,5.43
2018-06-23T00:33:13.982Z,5.40
2018-06-23T00:35:42.843Z,5.63
2018-06-23T00:38:11.504Z,5.57
2018-06-23T00:40:40.300Z,5.70
2018-06-23T00:43:09.006Z,6.50
2018-06-23T00:45:37.720Z,6.03
2018-06-23T00:48:06.456Z,5.90
2018-06-23T00:50:35.299Z,6.13
2018-06-23T00:53:03.962Z,5.77
2018-06-23T00:55:32.624Z,5.57
2018-06-23T00:58:01.353Z,6.07
2018-06-23T01:00:29.983Z,6.03
2018-06-23T01:02:58.860Z,5.37
2018-06-23T01:05:27.685Z,5.97
2018-06-23T01:07:56.383Z,5.70
2018-06-23T01:10:25.026Z,5.40
2018-06-23T01:12:53.815Z,5.67
2018-06-23T01:15:22.642Z,6.23
2018-06-23T01:17:51.405Z,6.03
2018-06-23T01:20:20.257Z,6.07
2018-06-23T01:22:49.120Z,6.63
2018-06-23T01:25:18.027Z,5.80
2018-06-23T01:27:46.743Z,6.07
2018-06-23T01:30:15.385Z,6.40
2018-06-23T01:32:43.977Z,6.23
2018-06-23T01:35:12.529Z,7.17
2018-06-23T01:37:41.212Z,5.87
2018-06-23T01:40:10.108Z,6.10
2018-06-23T01:42:38.921Z,6.10
2018-06-23T01:45:08.218Z,6.33
2018-06-23T01:47:37.037Z,6.43
2018-06-23T01:50:06.115Z,6.30
2018-06-23T01:52:35.032Z,5.90
2018-06-23T01:55:03.916Z,5.77
2018-06-23T01:57:32.665Z,6.30
2018-06-23T02:00:01.369Z,6.50
2018-06-23T02:02:30.305Z,6.40
2018-06-23T02:04:59.247Z,6.03
2018-06-23T02:07:28.003Z,6.33
2018-06-23T02:09:56.750Z,6.33
2018-06-23T02:12:25.549Z,6.63
2018-06-23T02:14:59.481Z,6.37
2018-06-23T02:17:33.481Z,6.43
2018-06-23T02:20:07.472Z,5.87
2018-06-23T02:22:41.262Z,6.53
2018-06-23T02:25:15.154Z,6.40
2018-06-23T02:27:49.071Z,7.17
2018-06-23T02:30:22.981Z,7.13
2018-06-23T02:32:52.860Z,7.27
2018-06-23T02:35:22.158Z,6.57
2018-06-23T02:37:50.928Z,7.00
2018-06-23T02:40:19.897Z,6.90
2018-06-23T02:42:48.591Z,7.13
2018-06-23T02:45:17.525Z,7.03
2018-06-23T02:47:46.446Z,6.97
2018-06-23T02:50:15.247Z,7.10
2018-06-23T02:52:43.927Z,7.10
2018-06-23T02:55:12.564Z,7.27
2018-06-23T02:57:41.374Z,6.87
2018-06-23T03:00:10.174Z,9.03
2018-06-23T03:02:38.962Z,7.23
2018-06-23T03:05:07.782Z,7.33
2018-06-23T03:07:36.689Z,6.50
2018-06-23T03:10:05.811Z,7.07
2018-06-23T03:12:34.701Z,7.27
2018-06-23T03:15:03.377Z,6.80
2018-06-23T03:17:32.008Z,7.37
2018-06-23T03:20:00.992Z,7.23
2018-06-23T03:22:29.772Z,7.50
2018-06-23T03:24:58.474Z,7.57
2018-06-23T03:27:27.590Z,7.43
2018-06-23T03:29:56.273Z,6.73
2018-06-23T03:32:25.122Z,6.00
2018-06-23T03:34:54.583Z,6.67
2018-06-23T03:37:23.281Z,6.07
2018-06-23T03:39:51.883Z,5.90
2018-06-23T03:42:20.743Z,6.00
2018-06-23T03:44:49.488Z,6.03
2018-06-23T03:47:18.206Z,5.53
2018-06-23T03:49:47.086Z,5.60
2018-06-23T03:52:15.813Z,5.63
2018-06-23T03:54:44.624Z,4.97
2018-06-23T03:57:13.438Z,4.90
2018-06-23T03:59:42.301Z,5.07
2018-06-23T04:02:10.931Z,4.97
2018-06-23T04:04:39.873Z,4.37
2018-06-23T04:07:08.627Z,4.50
2018-06-23T04:09:37.355Z,4.43
2018-06-23T04:12:06.378Z,4.63
2018-06-23T04:14:35.106Z,4.43
2018-06-23T04:17:03.708Z,3.93
2018-06-23T04:19:32.504Z,3.63
2018-06-23T04:22:01.416Z,3.73
2018-06-23T04:24:30.389Z,4.00
2018-06-23T04:26:59.217Z,3.80
2018-06-23T04:29:27.961Z,3.70
2018-06-23T04:31:56.759Z,3.53
2018-06-23T04:34:25.484Z,3.93
2018-06-23T04:36:54.109Z,3.70
2018-06-23T04:39:22.723Z,3.37
2018-06-23T04:41:51.596Z,4.10
2018-06-23T04:44:20.260Z,3.60
2018-06-23T04:46:49.118Z,3.97
2018-06-23T04:49:18.066Z,3.90
2018-06-23T04:51:46.804Z,4.00
2018-06-23T04:54:15.544Z,3.77
2018-06-23T04:56:44.342Z,3.87
2018-06-23T04:59:13.182Z,3.33
2018-06-23T05:01:41.872Z,3.80
2018-06-23T05:04:10.517Z,3.40
2018-06-23T05:06:39.395Z,3.30
2018-06-23T05:09:08.319Z,3.37
2018-06-23T05:11:37.208Z,3.77
2018-06-23T05:14:06.008Z,3.17
2018-06-23T05:16:34.788Z,3.17
2018-06-23T05:19:03.572Z,3.53
2018-06-23T05:21:32.419Z,3.30
2018-06-23T05:24:01.272Z,3.40
2018-06-23T05:26:30.239Z,3.47
2018-06-23T05:28:58.841Z,3.30
2018-06-23T05:31:27.547Z,3.07
2018-06-23T05:33:56.316Z,3.70
2018-06-23T05:36:25.199Z,3.60
2018-06-23T05:38:53.804Z,2.97
2018-06-23T05:41:22.866Z,3.33
2018-06-23T05:43:51.720Z,3.83
2018-06-23T05:46:21.515Z,3.67
2018-06-23T05:48:50.281Z,3.23
2018-06-23T05:51:19.210Z,3.30
2018-06-23T05:53:47.953Z,3.10
2018-06-23T05:56:16.697Z,3.60
2018-06-23T05:58:45.464Z,3.27
2018-06-23T06:01:14.124Z,3.53
2018-06-23T06:03:43.237Z,3.10
2018-06-23T06:06:11.884Z,3.47
2018-06-23T06:08:40.640Z,3.40
2018-06-23T06:11:09.534Z,3.30
2018-06-23T06:13:38.230Z,3.00
2018-06-23T06:16:06.956Z,3.40
2018-06-23T06:18:35.647Z,2.90
2018-06-23T06:21:04.362Z,2.93
2018-06-23T06:23:33.093Z,3.47
2018-06-23T06:26:01.832Z,3.25
2018-06-23T06:28:30.474Z,3.47
2018-06-23T06:30:59.260Z,3.02
2018-06-23T06:33:27.932Z,3.00
2018-06-23T06:35:56.477Z,2.55
2018-06-23T06:38:25.138Z,3.30
2018-06-23T06:40:53.860Z,3.47
2018-06-23T06:43:22.407Z,3.33
2018-06-23T06:45:50.959Z,3.20
2018-06-23T06:48:19.508Z,3.40
2018-06-23T06:50:48.065Z,3.53
2018-06-23T06:53:16.584Z,2.90
2018-06-23T06:55:46.023Z,3.43
2018-06-23T06:58:14.614Z,3.07
2018-06-23T07:00:43.301Z,3.30
2018-06-23T07:03:11.845Z,3.13
2018-06-23T07:05:40.391Z,3.10
2018-06-23T07:08:08.902Z,3.47
2018-06-23T07:10:37.436Z,2.87
2018-06-23T07:13:05.943Z,3.12
2018-06-23T07:15:34.497Z,3.42
2018-06-23T07:18:03.126Z,3.17
2018-06-23T07:20:31.677Z,3.42
2018-06-23T07:23:00.238Z,3.20
2018-06-23T07:25:28.828Z,2.98
2018-06-23T07:27:57.371Z,3.27
2018-06-23T07:30:25.904Z,3.27
2018-06-23T07:32:54.492Z,3.42
2018-06-23T07:35:23.018Z,3.52
2018-06-23T07:37:51.585Z,3.65
2018-06-23T07:40:20.112Z,3.60
2018-06-23T07:42:48.619Z,3.80
2018-06-23T07:45:17.130Z,3.37
2018-06-23T07:47:45.734Z,3.77
2018-06-23T07:50:14.213Z,3.58
2018-06-23T07:52:42.752Z,3.67
2018-06-23T07:55:11.294Z,3.60
2018-06-23T07:57:39.854Z,4.12
2018-06-23T08:00:08.379Z,3.70
2018-06-23T08:02:36.992Z,3.22
2018-06-23T08:05:05.505Z,3.37
2018-06-23T08:07:34.021Z,3.42
2018-06-23T08:10:02.570Z,3.45
2018-06-23T08:12:31.106Z,3.52
2018-06-23T08:14:59.644Z,3.30
2018-06-23T08:17:28.188Z,3.40
2018-06-23T08:19:56.710Z,3.30
2018-06-23T08:22:25.213Z,3.00
2018-06-23T08:24:53.763Z,3.00
2018-06-23T08:27:22.286Z,3.37
2018-06-23T08:29:50.806Z,3.23
2018-06-23T08:32:19.402Z,4.07
2018-06-23T08:34:47.950Z,3.63
2018-06-23T08:37:16.444Z,3.33
2018-06-23T08:39:45.156Z,4.97
2018-06-23T08:42:13.785Z,4.37
2018-06-23T08:44:42.433Z,5.83
2018-06-23T08:47:11.120Z,4.10
2018-06-23T08:49:39.620Z,3.40
2018-06-23T08:52:08.133Z,3.57
2018-06-23T08:54:36.668Z,3.37
2018-06-23T08:57:05.206Z,3.33
2018-06-23T08:59:33.709Z,5.47
2018-06-23T09:02:02.278Z,3.80
2018-06-23T09:04:30.860Z,5.53
2018-06-23T09:06:59.405Z,4.00
2018-06-23T09:09:28.566Z,3.53
2018-06-23T09:11:57.740Z,3.30
2018-06-23T09:14:26.922Z,3.40
2018-06-23T09:16:56.237Z,3.33
2018-06-23T09:19:25.417Z,3.93
2018-06-23T09:21:54.602Z,3.50
2018-06-23T09:24:23.817Z,3.37
2018-06-23T09:26:53.245Z,3.87
2018-06-23T09:29:22.357Z,3.27
2018-06-23T09:31:51.520Z,3.40
2018-06-23T09:34:20.643Z,4.07
2018-06-23T09:36:49.877Z,3.33
2018-06-23T09:39:19.003Z,3.73
2018-06-23T09:41:48.120Z,3.80
2018-06-23T09:44:17.268Z,3.33
2018-06-23T09:46:46.427Z,3.83
2018-06-23T09:49:15.520Z,3.13
2018-06-23T09:51:44.958Z,3.20
2018-06-23T09:54:14.908Z,3.23
2018-06-23T09:56:44.024Z,3.43
2018-06-23T09:59:13.169Z,3.00
2018-06-23T10:01:41.788Z,3.20
2018-06-23T10:04:10.868Z,3.60
2018-06-23T10:06:40.020Z,3.50
2018-06-23T10:09:10.573Z,3.57
2018-06-23T10:11:39.615Z,3.60
2018-06-23T10:14:08.892Z,3.60
2018-06-23T10:16:38.029Z,3.13
2018-06-23T10:19:07.279Z,2.97
2018-06-23T10:21:36.447Z,3.70
2018-06-23T10:24:05.678Z,2.90
2018-06-23T10:26:34.714Z,2.93
2018-06-23T10:29:04.248Z,3.13
2018-06-23T10:31:33.448Z,2.90
2018-06-23T10:34:02.547Z,2.80
2018-06-23T10:36:31.625Z,3.13
2018-06-23T10:39:00.724Z,3.70
2018-06-23T10:41:29.810Z,3.10
2018-06-23T10:43:58.977Z,3.23
2018-06-23T10:46:28.206Z,3.27
2018-06-23T10:48:57.234Z,2.87
2018-06-23T10:51:26.553Z,3.23
2018-06-23T10:53:55.641Z,3.13
2018-06-23T10:56:24.750Z,2.70
2018-06-23T10:58:55.227Z,2.83
2018-06-23T11:01:24.300Z,3.03
2018-06-23T11:03:53.413Z,2.50
2018-06-23T11:06:22.580Z,3.50
2018-06-23T11:08:51.797Z,3.50
2018-06-23T11:11:20.925Z,4.33
2018-06-23T11:13:50.047Z,3.40
2018-06-23T11:16:19.149Z,4.60
2018-06-23T11:18:48.269Z,3.23
2018-06-23T11:21:17.383Z,3.13
2018-06-23T11:23:46.635Z,3.97
2018-06-23T11:26:15.828Z,3.50
2018-06-23T11:28:44.948Z,3.60
2018-06-23T11:31:14.454Z,3.60
2018-06-23T11:33:43.578Z,2.93
2018-06-23T11:36:12.852Z,3.30
2018-06-23T11:38:41.951Z,3.63
2018-06-23T11:41:11.060Z,3.47
2018-06-23T11:43:40.159Z,3.40
2018-06-23T11:46:09.264Z,2.83
2018-06-23T11:48:38.332Z,3.50
2018-06-23T11:51:07.618Z,3.20
2018-06-23T11:53:36.680Z,3.20
2018-06-23T11:56:05.964Z,2.80
2018-06-23T11:58:35.110Z,3.17
2018-06-23T12:01:04.293Z,3.27
2018-06-23T12:03:33.415Z,3.20
2018-06-23T12:06:02.604Z,3.40
2018-06-23T12:08:31.734Z,3.13
2018-06-23T12:11:00.842Z,3.37
2018-06-23T12:13:29.993Z,3.77
2018-06-23T12:15:59.092Z,3.00
2018-06-23T12:18:28.160Z,3.00
2018-06-23T12:20:57.321Z,3.10
2018-06-23T12:23:26.521Z,3.00
2018-06-23T12:25:55.685Z,3.10
2018-06-23T12:28:24.811Z,3.27
2018-06-23T12:30:53.933Z,3.20
2018-06-23T12:33:23.069Z,3.40
2018-06-23T12:35:52.206Z,3.00
2018-06-23T12:38:21.298Z,2.50
2018-06-23T12:40:50.560Z,2.97
2018-06-23T12:43:19.757Z,3.13
2018-06-23T12:45:48.836Z,3.23
2018-06-23T12:48:17.994Z,3.00
2018-06-23T12:50:47.196Z,3.20
2018-06-23T12:53:16.326Z,3.17
2018-06-23T12:55:45.389Z,3.43
2018-06-23T12:58:14.770Z,3.20
2018-06-23T13:00:43.958Z,2.40
2018-06-23T13:03:12.995Z,2.37
2018-06-23T13:05:42.161Z,2.77
2018-06-23T13:08:11.324Z,2.30
2018-06-23T13:10:40.560Z,3.20
2018-06-23T13:13:09.676Z,2.60
2018-06-23T13:15:38.774Z,2.80
2018-06-23T13:18:08.718Z,3.37
2018-06-23T13:20:38.094Z,2.63
2018-06-23T13:23:07.249Z,2.50
2018-06-23T13:25:36.420Z,2.33
2018-06-23T13:28:05.620Z,2.33
2018-06-23T13:30:34.838Z,2.90
2018-06-23T13:33:03.972Z,2.60
2018-06-23T13:35:33.146Z,2.60
2018-06-23T13:38:02.209Z,2.47
2018-06-23T13:40:31.331Z,2.60
2018-06-23T13:43:00.459Z,2.53
2018-06-23T13:45:29.672Z,2.50
2018-06-23T13:47:58.743Z,2.57
2018-06-23T13:50:27.831Z,2.03
2018-06-23T13:52:56.901Z,2.30
2018-06-23T13:55:26.010Z,2.20
2018-06-23T13:57:55.106Z,2.13
2018-06-23T14:00:24.238Z,1.87
2018-06-23T14:02:53.303Z,2.40
2018-06-23T14:05:22.421Z,2.23
2018-06-23T14:07:51.704Z,2.40
2018-06-23T14:10:20.909Z,2.23
2018-06-23T14:12:49.959Z,2.13
2018-06-23T14:15:19.112Z,2.57
2018-06-23T14:17:48.218Z,2.10
2018-06-23T14:20:17.366Z,2.10
2018-06-23T14:22:46.484Z,2.60
2018-06-23T14:25:15.685Z,2.10
2018-06-23T14:27:44.817Z,2.47
2018-06-23T14:30:14.150Z,2.40
2018-06-23T14:32:43.222Z,2.47
2018-06-23T14:35:12.295Z,2.23
2018-06-23T14:37:41.539Z,2.30
2018-06-23T14:40:10.730Z,1.77
2018-06-23T14:42:39.944Z,2.00
2018-06-23T14:45:09.187Z,1.50
2018-06-23T14:47:38.345Z,2.00
2018-06-23T14:50:07.478Z,2.40
2018-06-23T14:52:36.732Z,1.97
2018-06-23T14:55:05.849Z,2.23
2018-06-23T14:57:34.993Z,2.03
2018-06-23T15:00:04.222Z,2.13
2018-06-23T15:02:33.297Z,2.07
2018-06-23T15:05:02.437Z,2.00
2018-06-23T15:07:31.529Z,2.20
2018-06-23T15:10:11.548Z,2.10
2018-06-23T15:12:51.742Z,1.93
2018-06-23T15:15:20.848Z,1.90
2018-06-23T15:17:49.927Z,1.90
2018-06-23T15:20:18.629Z,2.10
2018-06-23T15:22:47.694Z,2.07
2018-06-23T15:25:16.761Z,2.10
2018-06-23T15:27:45.915Z,2.10
2018-06-23T15:30:14.977Z,2.20
2018-06-23T15:32:44.040Z,1.80
2018-06-23T15:35:13.165Z,1.97
2018-06-23T15:37:42.256Z,2.10
2018-06-23T15:40:11.388Z,1.87
2018-06-23T15:42:40.500Z,1.83
2018-06-23T15:45:09.011Z,1.70
2018-06-23T15:47:38.084Z,2.20
2018-06-23T15:50:07.244Z,2.23
2018-06-23T15:52:36.416Z,2.23
2018-06-23T15:55:05.517Z,2.00
2018-06-23T15:57:34.677Z,1.90
2018-06-23T16:00:03.769Z,2.37
2018-06-23T16:02:32.963Z,2.30
2018-06-23T16:05:02.063Z,2.80
2018-06-23T16:07:31.172Z,2.40
2018-06-23T16:10:00.349Z,3.43
2018-06-23T16:12:29.469Z,3.03
2018-06-23T16:14:58.626Z,2.83
2018-06-23T16:17:27.629Z,2.73
2018-06-23T16:19:56.761Z,3.20
2018-06-23T16:22:25.933Z,2.53
2018-06-23T16:24:55.028Z,3.10
2018-06-23T16:27:24.542Z,3.40
2018-06-23T16:29:55.038Z,2.60
2018-06-23T16:32:24.607Z,3.03
2018-06-23T16:34:53.878Z,3.10
2018-06-23T16:37:23.080Z,2.77
2018-06-23T16:39:52.426Z,3.40
2018-06-23T16:42:21.595Z,2.83
2018-06-23T16:44:50.957Z,2.73
2018-06-23T16:47:20.128Z,2.70
2018-06-23T16:49:49.696Z,3.13
2018-06-23T16:52:18.779Z,2.53
2018-06-23T16:54:47.957Z,2.87
2018-06-23T16:57:17.619Z,2.90
2018-06-23T16:59:46.748Z,2.83
2018-06-23T17:02:16.049Z,2.50
2018-06-23T17:04:45.208Z,2.77
2018-06-23T17:07:14.543Z,2.63
2018-06-23T17:09:44.375Z,2.60
2018-06-23T17:12:13.850Z,2.60
2018-06-23T17:14:42.905Z,2.43
2018-06-23T17:17:12.373Z,2.70
2018-06-23T17:19:41.567Z,2.50
2018-06-23T17:22:10.956Z,3.00
2018-06-23T17:24:40.484Z,2.60
2018-06-23T17:27:09.618Z,2.30
2018-06-23T17:29:38.759Z,2.60
2018-06-23T17:32:07.890Z,2.53
2018-06-23T17:34:37.349Z,2.67
2018-06-23T17:37:06.626Z,2.53
2018-06-23T17:39:35.776Z,2.70
2018-06-23T17:42:04.869Z,2.63
2018-06-23T17:44:33.889Z,2.50
2018-06-23T17:47:03.128Z,2.50
2018-06-23T17:49:32.152Z,2.87
2018-06-23T17:52:01.204Z,2.90
2018-06-23T17:54:30.359Z,2.60
2018-06-23T17:56:59.544Z,2.50
2018-06-23T17:59:28.630Z,2.50
2018-06-23T18:01:57.734Z,2.67
2018-06-23T18:04:26.847Z,2.80
2018-06-23T18:06:55.969Z,2.67
2018-06-23T18:09:25.085Z,2.40
2018-06-23T18:11:54.242Z,2.80
2018-06-23T18:14:23.400Z,2.60
2018-06-23T18:16:52.550Z,2.87
2018-06-23T18:19:21.620Z,2.87
2018-06-23T18:21:50.742Z,2.70
2018-06-23T18:24:19.844Z,2.90
2018-06-23T18:26:49.177Z,2.70
2018-06-23T18:29:18.336Z,2.50
2018-06-23T18:31:47.496Z,2.80
2018-06-23T18:34:16.681Z,2.40
2018-06-23T18:36:45.873Z,2.50
2018-06-23T18:39:15.072Z,2.90
2018-06-23T18:41:44.120Z,2.77
2018-06-23T18:44:13.453Z,2.50
2018-06-23T18:46:42.613Z,2.70
2018-06-23T18:49:11.725Z,2.67
2018-06-23T18:51:40.778Z,2.40
2018-06-23T18:54:09.958Z,2.73
2018-06-23T18:56:39.029Z,2.60
2018-06-23T18:59:08.119Z,2.50
2018-06-23T19:01:37.378Z,2.47
2018-06-23T19:04:06.720Z,2.97
2018-06-23T19:06:35.833Z,2.60
2018-06-23T19:09:07.335Z,2.60
2018-06-23T19:11:36.475Z,2.60
2018-06-23T19:14:05.838Z,2.30
2018-06-23T19:16:35.126Z,2.77
2018-06-23T19:19:04.312Z,2.33
2018-06-23T19:21:33.409Z,2.60
2018-06-23T19:24:02.493Z,2.53
2018-06-23T19:26:31.665Z,2.90
2018-06-23T19:29:00.736Z,2.70
2018-06-23T19:31:29.876Z,2.67
2018-06-23T19:33:58.961Z,2.30
2018-06-23T19:36:28.082Z,2.50
2018-06-23T19:38:57.233Z,2.30
2018-06-23T19:41:27.748Z,2.87
2018-06-23T19:43:56.984Z,2.53
2018-06-23T19:46:26.943Z,2.40
2018-06-23T19:48:56.496Z,2.70
2018-06-23T19:51:25.595Z,2.60
2018-06-23T19:53:54.812Z,2.43
2018-06-23T19:56:23.964Z,2.47
2018-06-23T19:58:53.091Z,2.37
2018-06-23T20:01:22.167Z,2.57
2018-06-23T20:03:51.328Z,2.73
2018-06-23T20:06:20.472Z,2.20
2018-06-23T20:08:49.629Z,2.30
2018-06-23T20:11:18.808Z,2.40
2018-06-23T20:13:47.910Z,2.47
2018-06-23T20:16:17.084Z,2.57
2018-06-23T20:18:46.209Z,2.40
2018-06-23T20:21:15.372Z,2.30
2018-06-23T20:23:44.518Z,2.47
2018-06-23T20:26:13.703Z,2.60
2018-06-23T20:28:42.834Z,2.67
2018-06-23T20:31:11.928Z,2.33
2018-06-23T20:33:41.180Z,2.50
2018-06-23T20:36:10.443Z,2.70
2018-06-23T20:38:39.268Z,2.50
2018-06-23T20:41:08.448Z,2.20
2018-06-23T20:43:37.196Z,2.40
2018-06-23T20:46:05.851Z,2.40
2018-06-23T20:48:34.446Z,2.73
2018-06-23T20:51:03.162Z,2.50
2018-06-23T20:53:31.834Z,2.50
2018-06-23T20:56:00.556Z,2.50
2018-06-23T20:58:29.260Z,2.73
2018-06-23T21:00:57.969Z,2.87
2018-06-23T21:03:26.824Z,2.50
2018-06-23T21:05:55.582Z,2.70
2018-06-23T21:08:24.208Z,2.47
2018-06-23T21:10:52.910Z,2.40
2018-06-23T21:13:21.647Z,2.50
2018-06-23T21:15:50.595Z,2.60
2018-06-23T21:18:19.301Z,2.60
2018-06-23T21:20:48.137Z,2.70
2018-06-23T21:23:17.096Z,2.73
2018-06-23T21:25:45.862Z,2.83
2018-06-23T21:28:14.685Z,2.60
2018-06-23T21:30:43.516Z,2.80
2018-06-23T21:33:12.199Z,2.60
2018-06-23T21:35:40.868Z,2.97
2018-06-23T21:38:09.618Z,2.47
2018-06-23T21:40:38.422Z,2.70
2018-06-23T21:43:07.259Z,2.83
2018-06-23T21:45:35.884Z,2.43
2018-06-23T21:48:04.652Z,2.60
2018-06-23T21:50:33.492Z,2.50
2018-06-23T21:53:02.328Z,2.90
2018-06-23T21:55:31.056Z,2.70
2018-06-23T21:57:59.879Z,2.60
2018-06-23T22:00:44.735Z,2.40
2018-06-23T22:03:14.704Z,3.10
2018-06-23T22:05:43.422Z,2.27
2018-06-23T22:08:12.511Z,2.53
2018-06-23T22:10:41.716Z,2.90
2018-06-23T22:13:10.622Z,2.73
2018-06-23T22:15:39.499Z,2.60
2018-06-23T22:18:08.125Z,2.70
2018-06-23T22:20:36.915Z,3.03
2018-06-23T22:23:05.554Z,2.40
2018-06-23T22:25:34.338Z,2.80
2018-06-23T22:28:03.060Z,2.60
2018-06-23T22:30:31.724Z,2.60
2018-06-23T22:33:00.459Z,2.80
2018-06-23T22:35:29.276Z,2.90
2018-06-23T22:37:58.068Z,2.77
2018-06-23T22:40:26.714Z,2.93
2018-06-23T22:42:55.774Z,3.20
2018-06-23T22:45:24.764Z,2.90
2018-06-23T22:47:53.643Z,2.70
2018-06-23T22:50:22.334Z,2.80
2018-06-23T22:52:51.111Z,2.50
2018-06-23T22:55:19.922Z,2.80
2018-06-23T22:57:48.791Z,2.80
2018-06-23T23:00:17.793Z,2.77
2018-06-23T23:02:46.496Z,2.80
2018-06-23T23:05:15.256Z,2.80
2018-06-23T23:07:43.971Z,2.70
2018-06-23T23:10:12.818Z,2.70
2018-06-23T23:12:41.843Z,2.60
2018-06-23T23:15:10.609Z,2.60
2018-06-23T23:17:39.481Z,2.77
2018-06-23T23:20:08.123Z,2.63
2018-06-23T23:22:36.964Z,2.80
2018-06-23T23:25:05.742Z,2.83
2018-06-23T23:27:34.397Z,2.80
2018-06-23T23:30:03.208Z,2.50
2018-06-23T23:32:32.025Z,2.80
2018-06-23T23:35:00.829Z,2.93
2018-06-23T23:37:29.669Z,2.93
2018-06-23T23:39:58.521Z,2.67
2018-06-23T23:42:27.191Z,3.10
2018-06-23T23:44:56.034Z,2.80
2018-06-23T23:47:24.775Z,2.90
2018-06-23T23:49:53.499Z,2.60
2018-06-23T23:52:22.077Z,2.63
2018-06-23T23:54:50.850Z,2.77
2018-06-23T23:57:19.748Z,2.80
2018-06-23T23:59:48.718Z,2.70
